sensor_id;sensor_type;location;lat;lon;timestamp;pressure;altitude;pressure_sealevel;temperature;humidity
4858;BME280;58975;51.978;8.472;2023-02-10T00:01:14;102149.09;;;1.46;100.00
4858;BME280;58975;51.978;8.472;2023-02-10T00:06:12;102146.28;;;1.60;100.00
4858;BME280;58975;51.978;8.472;2023-02-10T00:11:10;102150.53;;;1.68;100.00
4858;BME280;58975;51.978;8.472;2023-02-10T00:16:10;102152.91;;;1.80;100.00
4858;BME280;58975;51.978;8.472;2023-02-10T00:21:16;102152.22;;;1.72;100.00
4858;BME280;58975;51.978;8.472;2023-02-10T00:26:13;102146.81;;;1.80;100.00
4858;BME280;58975;51.978;8.472;2023-02-10T00:31:13;102149.47;;;1.77;100.00
4858;BME280;58975;51.978;8.472;2023-02-10T00:36:12;102147.91;;;1.68;100.00
4858;BME280;58975;51.978;8.472;2023-02-10T00:41:12;102149.66;;;1.65;100.00
4858;BME280;58975;51.978;8.472;2023-02-10T00:46:10;102156.84;;;1.57;100.00
4858;BME280;58975;51.978;8.472;2023-02-10T00:51:09;102158.66;;;1.52;100.00
4858;BME280;58975;51.978;8.472;2023-02-10T00:56:06;102160.41;;;1.53;100.00
4858;BME280;58975;51.978;8.472;2023-02-10T01:01:03;102162.94;;;1.57;100.00
4858;BME280;58975;51.978;8.472;2023-02-10T01:06:00;102168.09;;;1.63;100.00
4858;BME280;58975;51.978;8.472;2023-02-10T01:11:02;102166.28;;;1.67;100.00
4858;BME280;58975;51.978;8.472;2023-02-10T01:15:59;102165.44;;;1.65;100.00
4858;BME280;58975;51.978;8.472;2023-02-10T01:20:56;102167.03;;;1.75;100.00
4858;BME280;58975;51.978;8.472;2023-02-10T01:25:53;102175.00;;;1.69;100.00
4858;BME280;58975;51.978;8.472;2023-02-10T01:30:49;102175.78;;;1.74;100.00
4858;BME280;58975;51.978;8.472;2023-02-10T01:35:45;102187.19;;;1.74;100.00
4858;BME280;58975;51.978;8.472;2023-02-10T01:40:42;102181.88;;;1.77;100.00
4858;BME280;58975;51.978;8.472;2023-02-10T01:45:38;102175.84;;;1.72;100.00
4858;BME280;58975;51.978;8.472;2023-02-10T01:50:48;102189.94;;;1.67;100.00
4858;BME280;58975;51.978;8.472;2023-02-10T01:55:49;102175.16;;;1.60;100.00
4858;BME280;58975;51.978;8.472;2023-02-10T02:00:47;102175.22;;;1.55;100.00
4858;BME280;58975;51.978;8.472;2023-02-10T02:05:44;102193.59;;;1.57;100.00
4858;BME280;58975;51.978;8.472;2023-02-10T02:11:50;102191.78;;;1.59;100.00
4858;BME280;58975;51.978;8.472;2023-02-10T02:22:03;102181.34;;;1.56;100.00
4858;BME280;58975;51.978;8.472;2023-02-10T02:27:28;102183.22;;;1.48;100.00
4858;BME280;58975;51.978;8.472;2023-02-10T02:32:39;102191.97;;;1.47;100.00
4858;BME280;58975;51.978;8.472;2023-02-10T02:37:44;102193.78;;;1.45;100.00
4858;BME280;58975;51.978;8.472;2023-02-10T02:42:40;102200.72;;;1.49;100.00
4858;BME280;58975;51.978;8.472;2023-02-10T02:47:43;102200.72;;;1.46;100.00
4858;BME280;58975;51.978;8.472;2023-02-10T02:53:09;102196.28;;;1.52;100.00
4858;BME280;58975;51.978;8.472;2023-02-10T02:58:15;102193.59;;;1.57;100.00
4858;BME280;58975;51.978;8.472;2023-02-10T03:03:14;102193.53;;;1.60;100.00
4858;BME280;58975;51.978;8.472;2023-02-10T03:08:11;102197.84;;;1.64;100.00
4858;BME280;58975;51.978;8.472;2023-02-10T03:13:07;102189.94;;;1.67;100.00
4858;BME280;58975;51.978;8.472;2023-02-10T03:18:04;102182.88;;;1.69;100.00
4858;BME280;58975;51.978;8.472;2023-02-10T03:23:00;102176.78;;;1.68;100.00
4858;BME280;58975;51.978;8.472;2023-02-10T03:27:57;102177.59;;;1.72;100.00
4858;BME280;58975;51.978;8.472;2023-02-10T03:32:53;102181.97;;;1.71;100.00
4858;BME280;58975;51.978;8.472;2023-02-10T03:37:50;102178.47;;;1.72;100.00
4858;BME280;58975;51.978;8.472;2023-02-10T03:42:46;102193.38;;;1.69;100.00
4858;BME280;58975;51.978;8.472;2023-02-10T03:47:42;102186.34;;;1.71;100.00
4858;BME280;58975;51.978;8.472;2023-02-10T03:52:39;102192.72;;;1.55;100.00
4858;BME280;58975;51.978;8.472;2023-02-10T03:57:35;102198.94;;;1.49;100.00
4858;BME280;58975;51.978;8.472;2023-02-10T04:02:32;102192.03;;;1.43;100.00
4858;BME280;58975;51.978;8.472;2023-02-10T04:07:28;102193.03;;;1.35;100.00
4858;BME280;58975;51.978;8.472;2023-02-10T04:12:24;102193.72;;;1.48;100.00
4858;BME280;58975;51.978;8.472;2023-02-10T04:17:21;102207.69;;;1.50;100.00
4858;BME280;58975;51.978;8.472;2023-02-10T04:22:17;102211.16;;;1.52;100.00
4858;BME280;58975;51.978;8.472;2023-02-10T04:27:14;102202.47;;;1.48;100.00
4858;BME280;58975;51.978;8.472;2023-02-10T04:32:10;102209.31;;;1.60;100.00
4858;BME280;58975;51.978;8.472;2023-02-10T04:37:06;102207.59;;;1.56;100.00
4858;BME280;58975;51.978;8.472;2023-02-10T04:42:03;102205.03;;;1.53;100.00
4858;BME280;58975;51.978;8.472;2023-02-10T04:47:00;102199.16;;;1.34;100.00
4858;BME280;58975;51.978;8.472;2023-02-10T04:51:56;102206.31;;;1.24;100.00
4858;BME280;58975;51.978;8.472;2023-02-10T04:56:52;102211.56;;;1.24;100.00
4858;BME280;58975;51.978;8.472;2023-02-10T05:01:49;102204.28;;;1.41;100.00
4858;BME280;58975;51.978;8.472;2023-02-10T05:06:45;102208.72;;;1.39;100.00
4858;BME280;58975;51.978;8.472;2023-02-10T05:11:42;102211.28;;;1.42;100.00
4858;BME280;58975;51.978;8.472;2023-02-10T05:16:39;102205.31;;;1.31;100.00
4858;BME280;58975;51.978;8.472;2023-02-10T05:21:36;102211.56;;;1.24;100.00
4858;BME280;58975;51.978;8.472;2023-02-10T05:26:32;102212.28;;;1.34;100.00
4858;BME280;58975;51.978;8.472;2023-02-10T05:31:29;102221.94;;;1.30;100.00
4858;BME280;58975;51.978;8.472;2023-02-10T05:36:25;102227.13;;;1.36;100.00
4858;BME280;58975;51.978;8.472;2023-02-10T05:41:23;102235.94;;;1.32;100.00
4858;BME280;58975;51.978;8.472;2023-02-10T05:46:19;102233.25;;;1.35;100.00
4858;BME280;58975;51.978;8.472;2023-02-10T05:51:16;102245.50;;;1.36;100.00
4858;BME280;58975;51.978;8.472;2023-02-10T05:56:12;102242.00;;;1.36;100.00
4858;BME280;58975;51.978;8.472;2023-02-10T06:01:09;102269.16;;;1.33;100.00
4858;BME280;58975;51.978;8.472;2023-02-10T06:06:06;102257.81;;;1.33;100.00
4858;BME280;58975;51.978;8.472;2023-02-10T06:11:03;102273.63;;;1.28;100.00
4858;BME280;58975;51.978;8.472;2023-02-10T06:15:59;102274.53;;;1.24;100.00
4858;BME280;58975;51.978;8.472;2023-02-10T06:20:57;102285.13;;;1.17;100.00
4858;BME280;58975;51.978;8.472;2023-02-10T06:25:54;102283.38;;;1.17;100.00
4858;BME280;58975;51.978;8.472;2023-02-10T06:30:51;102302.63;;;1.15;100.00
4858;BME280;58975;51.978;8.472;2023-02-10T06:35:47;102306.13;;;1.14;100.00
4858;BME280;58975;51.978;8.472;2023-02-10T06:40:44;102310.53;;;1.13;100.00
4858;BME280;58975;51.978;8.472;2023-02-10T06:45:41;102315.75;;;1.15;100.00
4858;BME280;58975;51.978;8.472;2023-02-10T06:50:37;102314.88;;;1.14;100.00
4858;BME280;58975;51.978;8.472;2023-02-10T06:55:34;102321.84;;;1.18;100.00
4858;BME280;58975;51.978;8.472;2023-02-10T07:00:31;102330.56;;;1.19;100.00
4858;BME280;58975;51.978;8.472;2023-02-10T07:05:30;102327.94;;;1.20;100.00
4858;BME280;58975;51.978;8.472;2023-02-10T07:10:27;102326.19;;;1.19;100.00
4858;BME280;58975;51.978;8.472;2023-02-10T07:15:25;102327.91;;;1.23;100.00
4858;BME280;58975;51.978;8.472;2023-02-10T07:20:21;102329.66;;;1.23;100.00
4858;BME280;58975;51.978;8.472;2023-02-10T07:25:18;102336.66;;;1.24;100.00
4858;BME280;58975;51.978;8.472;2023-02-10T07:30:15;102338.38;;;1.26;100.00
4858;BME280;58975;51.978;8.472;2023-02-10T07:35:11;102340.97;;;1.29;100.00
4858;BME280;58975;51.978;8.472;2023-02-10T07:40:08;102335.69;;;1.32;100.00
4858;BME280;58975;51.978;8.472;2023-02-10T07:45:05;102332.09;;;1.39;100.00
4858;BME280;58975;51.978;8.472;2023-02-10T07:50:02;102343.50;;;1.37;100.00
4858;BME280;58975;51.978;8.472;2023-02-10T07:54:59;102346.97;;;1.39;100.00
4858;BME280;58975;51.978;8.472;2023-02-10T07:59:58;102341.72;;;1.37;100.00
4858;BME280;58975;51.978;8.472;2023-02-10T08:04:55;102352.94;;;1.52;100.00
4858;BME280;58975;51.978;8.472;2023-02-10T08:09:51;102355.59;;;1.50;100.00
4858;BME280;58975;51.978;8.472;2023-02-10T08:14:48;102351.19;;;1.51;100.00
4858;BME280;58975;51.978;8.472;2023-02-10T08:19:44;102363.41;;;1.55;100.00
4858;BME280;58975;51.978;8.472;2023-02-10T08:24:41;102370.34;;;1.59;100.00
4858;BME280;58975;51.978;8.472;2023-02-10T08:29:37;102367.69;;;1.63;100.00
4858;BME280;58975;51.978;8.472;2023-02-10T08:34:33;102379.00;;;1.68;100.00
4858;BME280;58975;51.978;8.472;2023-02-10T08:39:30;102384.22;;;1.70;100.00
4858;BME280;58975;51.978;8.472;2023-02-10T08:44:26;102375.41;;;1.74;100.00
4858;BME280;58975;51.978;8.472;2023-02-10T08:49:23;102376.19;;;1.80;100.00
4858;BME280;58975;51.978;8.472;2023-02-10T08:54:21;102380.50;;;1.86;100.00
4858;BME280;58975;51.978;8.472;2023-02-10T08:59:18;102374.31;;;1.92;100.00
4858;BME280;58975;51.978;8.472;2023-02-10T09:04:15;102372.56;;;1.92;100.00
4858;BME280;58975;51.978;8.472;2023-02-10T09:09:16;102375.09;;;2.00;100.00
4858;BME280;58975;51.978;8.472;2023-02-10T09:14:15;102382.00;;;2.05;100.00
4858;BME280;58975;51.978;8.472;2023-02-10T09:19:12;102381.09;;;2.08;100.00
4858;BME280;58975;51.978;8.472;2023-02-10T09:24:08;102378.38;;;2.12;100.00
4858;BME280;58975;51.978;8.472;2023-02-10T09:29:04;102370.44;;;2.17;100.00
4858;BME280;58975;51.978;8.472;2023-02-10T09:34:01;102373.00;;;2.21;100.00
4858;BME280;58975;51.978;8.472;2023-02-10T09:38:58;102372.88;;;2.30;100.00
4858;BME280;58975;51.978;8.472;2023-02-10T09:44:03;102373.69;;;2.34;100.00
4858;BME280;58975;51.978;8.472;2023-02-10T09:54:30;102375.84;;;2.63;100.00
4858;BME280;58975;51.978;8.472;2023-02-10T09:59:28;102380.97;;;2.72;100.00
4858;BME280;58975;51.978;8.472;2023-02-10T10:04:27;102378.22;;;2.79;100.00
4858;BME280;58975;51.978;8.472;2023-02-10T10:09:35;102370.97;;;2.91;100.00
4858;BME280;58975;51.978;8.472;2023-02-10T10:14:37;102379.84;;;2.86;100.00
4858;BME280;58975;51.978;8.472;2023-02-10T10:30:14;102366.59;;;2.91;100.00
4858;BME280;58975;51.978;8.472;2023-02-10T10:35:39;102366.22;;;3.12;100.00
4858;BME280;58975;51.978;8.472;2023-02-10T10:40:41;102372.16;;;3.23;100.00
4858;BME280;58975;51.978;8.472;2023-02-10T10:45:42;102374.38;;;3.45;100.00
4858;BME280;58975;51.978;8.472;2023-02-10T10:50:41;102374.38;;;3.45;100.00
4858;BME280;58975;51.978;8.472;2023-02-10T10:55:40;102370.91;;;3.43;100.00
4858;BME280;58975;51.978;8.472;2023-02-10T11:00:49;102372.25;;;3.62;100.00
4858;BME280;58975;51.978;8.472;2023-02-10T11:06:08;102372.81;;;3.77;100.00
4858;BME280;58975;51.978;8.472;2023-02-10T11:11:06;102359.00;;;4.06;100.00
4858;BME280;58975;51.978;8.472;2023-02-10T11:16:09;102346.00;;;4.36;100.00
4858;BME280;58975;51.978;8.472;2023-02-10T11:21:08;102343.91;;;4.50;100.00
4858;BME280;58975;51.978;8.472;2023-02-10T11:26:16;102330.44;;;4.60;100.00
4858;BME280;58975;51.978;8.472;2023-02-10T11:31:32;102319.97;;;4.57;100.00
4858;BME280;58975;51.978;8.472;2023-02-10T11:36:39;102318.41;;;4.83;100.00
4858;BME280;58975;51.978;8.472;2023-02-10T11:41:36;102312.34;;;4.79;100.00
4858;BME280;58975;51.978;8.472;2023-02-10T11:46:32;102304.44;;;4.79;100.00
4858;BME280;58975;51.978;8.472;2023-02-10T11:51:29;102304.75;;;4.67;100.00
4858;BME280;58975;51.978;8.472;2023-02-10T11:56:42;102311.63;;;4.74;100.00
4858;BME280;58975;51.978;8.472;2023-02-10T12:07:09;102320.59;;;5.32;100.00
4858;BME280;58975;51.978;8.472;2023-02-10T12:12:32;102308.47;;;5.24;100.00
4858;BME280;58975;51.978;8.472;2023-02-10T12:17:48;102301.03;;;5.06;100.00
4858;BME280;58975;51.978;8.472;2023-02-10T12:28:14;102295.50;;;5.15;100.00
4858;BME280;58975;51.978;8.472;2023-02-10T12:43:45;102263.72;;;4.88;100.00
4858;BME280;58975;51.978;8.472;2023-02-10T12:49:02;102256.00;;;5.12;100.00
4858;BME280;58975;51.978;8.472;2023-02-10T12:54:07;102253.06;;;5.21;100.00
4858;BME280;58975;51.978;8.472;2023-02-10T12:59:28;102253.00;;;5.24;100.00
4858;BME280;58975;51.978;8.472;2023-02-10T13:04:32;102238.84;;;5.25;100.00
4858;BME280;58975;51.978;8.472;2023-02-10T13:09:52;102238.06;;;5.23;100.00
4858;BME280;58975;51.978;8.472;2023-02-10T13:15:00;102231.63;;;5.32;100.00
4858;BME280;58975;51.978;8.472;2023-02-10T13:20:07;102235.19;;;5.31;100.00
4858;BME280;58975;51.978;8.472;2023-02-10T13:25:18;102223.38;;;5.43;100.00
4858;BME280;58975;51.978;8.472;2023-02-10T13:30:44;102223.41;;;5.41;100.00
4858;BME280;58975;51.978;8.472;2023-02-10T13:35:45;102224.81;;;5.25;100.00
4858;BME280;58975;51.978;8.472;2023-02-10T13:40:54;102228.69;;;5.41;100.00
4858;BME280;58975;51.978;8.472;2023-02-10T13:46:23;102210.59;;;5.29;100.00
4858;BME280;58975;51.978;8.472;2023-02-10T13:51:31;102197.56;;;5.52;100.00
4858;BME280;58975;51.978;8.472;2023-02-10T13:56:31;102186.41;;;5.70;100.00
4858;BME280;58975;51.978;8.472;2023-02-10T14:06:40;102192.28;;;5.52;100.00
4858;BME280;58975;51.978;8.472;2023-02-10T14:11:42;102194.94;;;5.51;100.00
4858;BME280;58975;51.978;8.472;2023-02-10T14:16:40;102194.41;;;5.40;100.00
4858;BME280;58975;51.978;8.472;2023-02-10T14:21:40;102186.75;;;5.60;100.00
4858;BME280;58975;51.978;8.472;2023-02-10T14:26:42;102189.69;;;5.49;100.00
4858;BME280;58975;51.978;8.472;2023-02-10T14:31:39;102191.19;;;5.58;100.00
4858;BME280;58975;51.978;8.472;2023-02-10T14:36:37;102190.66;;;5.47;100.00
4858;BME280;58975;51.978;8.472;2023-02-10T14:41:33;102174.56;;;5.54;100.00
4858;BME280;58975;51.978;8.472;2023-02-10T14:46:31;102175.66;;;5.49;100.00
4858;BME280;58975;51.978;8.472;2023-02-10T14:51:29;102167.16;;;5.38;100.00
4858;BME280;58975;51.978;8.472;2023-02-10T14:56:27;102169.66;;;5.14;100.00
4858;BME280;58975;51.978;8.472;2023-02-10T15:01:28;102160.94;;;5.11;100.00
4858;BME280;58975;51.978;8.472;2023-02-10T15:06:30;102177.00;;;5.05;100.00
4858;BME280;58975;51.978;8.472;2023-02-10T15:11:30;102168.00;;;5.10;100.00
4858;BME280;58975;51.978;8.472;2023-02-10T15:16:47;102150.47;;;5.09;100.00
4858;BME280;58975;51.978;8.472;2023-02-10T15:21:45;102160.28;;;5.04;100.00
4858;BME280;58975;51.978;8.472;2023-02-10T15:26:42;102149.84;;;5.00;100.00
4858;BME280;58975;51.978;8.472;2023-02-10T15:31:39;102148.19;;;4.97;100.00
4858;BME280;58975;51.978;8.472;2023-02-10T15:36:48;102151.19;;;4.85;100.00
4858;BME280;58975;51.978;8.472;2023-02-10T15:46:50;102142.00;;;4.67;100.00
4858;BME280;58975;51.978;8.472;2023-02-10T15:51:52;102132.66;;;4.56;100.00
4858;BME280;58975;51.978;8.472;2023-02-10T15:57:00;102139.03;;;4.49;100.00
4858;BME280;58975;51.978;8.472;2023-02-10T16:01:58;102139.44;;;4.34;100.00
4858;BME280;58975;51.978;8.472;2023-02-10T16:07:00;102131.63;;;4.31;100.00
4858;BME280;58975;51.978;8.472;2023-02-10T16:12:00;102119.56;;;4.20;100.00
4858;BME280;58975;51.978;8.472;2023-02-10T16:16:59;102114.56;;;4.11;100.00
4858;BME280;58975;51.978;8.472;2023-02-10T16:21:56;102129.75;;;4.02;100.00
4858;BME280;58975;51.978;8.472;2023-02-10T16:26:54;102115.94;;;3.92;100.00
4858;BME280;58975;51.978;8.472;2023-02-10T16:31:51;102124.31;;;3.74;100.00
4858;BME280;58975;51.978;8.472;2023-02-10T16:36:48;102126.16;;;3.70;100.00
4858;BME280;58975;51.978;8.472;2023-02-10T16:41:48;102118.28;;;3.69;100.00
4858;BME280;58975;51.978;8.472;2023-02-10T16:46:45;102119.72;;;3.47;100.00
4858;BME280;58975;51.978;8.472;2023-02-10T16:51:45;102116.09;;;3.51;100.00
4858;BME280;58975;51.978;8.472;2023-02-10T16:56:42;102116.41;;;3.39;100.00
4858;BME280;58975;51.978;8.472;2023-02-10T17:01:39;102116.75;;;3.23;100.00
4858;BME280;58975;51.978;8.472;2023-02-10T17:06:41;102115.03;;;3.22;100.00
4858;BME280;58975;51.978;8.472;2023-02-10T17:11:40;102121.22;;;3.20;100.00
4858;BME280;58975;51.978;8.472;2023-02-10T17:16:38;102109.25;;;3.07;100.00
4858;BME280;58975;51.978;8.472;2023-02-10T17:21:35;102099.69;;;3.03;100.00
4858;BME280;58975;51.978;8.472;2023-02-10T17:26:31;102091.53;;;2.75;100.00
4858;BME280;58975;51.978;8.472;2023-02-10T17:31:28;102098.59;;;2.73;100.00
4858;BME280;58975;51.978;8.472;2023-02-10T17:36:26;102092.44;;;2.74;100.00
4858;BME280;58975;51.978;8.472;2023-02-10T17:41:24;102084.47;;;2.77;100.00
4858;BME280;58975;51.978;8.472;2023-02-10T17:46:21;102064.38;;;2.74;100.00
4858;BME280;58975;51.978;8.472;2023-02-10T17:51:21;102089.66;;;2.80;100.00
4858;BME280;58975;51.978;8.472;2023-02-10T17:56:20;102106.75;;;3.01;100.00
4858;BME280;58975;51.978;8.472;2023-02-10T18:01:27;102094.50;;;2.98;100.00
4858;BME280;58975;51.978;8.472;2023-02-10T18:06:24;102092.97;;;2.90;100.00
4858;BME280;58975;51.978;8.472;2023-02-10T18:11:25;102104.47;;;2.85;100.00
4858;BME280;58975;51.978;8.472;2023-02-10T18:16:23;102113.28;;;2.83;100.00
4858;BME280;58975;51.978;8.472;2023-02-10T18:21:22;102106.66;;;3.05;100.00
4858;BME280;58975;51.978;8.472;2023-02-10T18:26:20;102087.13;;;2.75;100.00
4858;BME280;58975;51.978;8.472;2023-02-10T18:31:16;102083.25;;;2.52;100.00
4858;BME280;58975;51.978;8.472;2023-02-10T18:36:15;102084.25;;;2.46;100.00
4858;BME280;58975;51.978;8.472;2023-02-10T18:41:13;102076.69;;;2.29;100.00
4858;BME280;58975;51.978;8.472;2023-02-10T18:46:09;102063.56;;;2.28;100.00
4858;BME280;58975;51.978;8.472;2023-02-10T18:51:06;102070.19;;;2.47;100.00
4858;BME280;58975;51.978;8.472;2023-02-10T18:56:12;102048.50;;;2.36;100.00
4858;BME280;58975;51.978;8.472;2023-02-10T19:01:12;102063.25;;;2.43;100.00
4858;BME280;58975;51.978;8.472;2023-02-10T19:06:10;102061.34;;;2.51;100.00
4858;BME280;58975;51.978;8.472;2023-02-10T19:11:08;102067.22;;;2.64;100.00
4858;BME280;58975;51.978;8.472;2023-02-10T19:16:06;102075.19;;;2.61;100.00
4858;BME280;58975;51.978;8.472;2023-02-10T19:21:02;102084.59;;;2.71;100.00
4858;BME280;58975;51.978;8.472;2023-02-10T19:26:06;102099.22;;;2.84;100.00
4858;BME280;58975;51.978;8.472;2023-02-10T19:31:04;102111.31;;;2.93;100.00
4858;BME280;58975;51.978;8.472;2023-02-10T19:36:02;102127.00;;;2.97;100.00
4858;BME280;58975;51.978;8.472;2023-02-10T19:41:08;102126.84;;;3.05;100.00
4858;BME280;58975;51.978;8.472;2023-02-10T19:46:06;102130.69;;;3.28;100.00
4858;BME280;58975;51.978;8.472;2023-02-10T19:51:07;102126.13;;;3.37;100.00
4858;BME280;58975;51.978;8.472;2023-02-10T19:56:07;102112.78;;;3.43;100.00
4858;BME280;58975;51.978;8.472;2023-02-10T20:01:07;102121.66;;;3.39;100.00
4858;BME280;58975;51.978;8.472;2023-02-10T20:06:04;102103.22;;;3.39;100.00
4858;BME280;58975;51.978;8.472;2023-02-10T20:11:00;102099.72;;;3.38;100.00
4858;BME280;58975;51.978;8.472;2023-02-10T20:15:57;102088.41;;;3.34;100.00
4858;BME280;58975;51.978;8.472;2023-02-10T20:20:55;102091.31;;;3.22;100.00
4858;BME280;58975;51.978;8.472;2023-02-10T20:25:57;102075.53;;;3.22;100.00
4858;BME280;58975;51.978;8.472;2023-02-10T20:30:54;102074.63;;;3.23;100.00
4858;BME280;58975;51.978;8.472;2023-02-10T20:35:59;102073.13;;;3.13;100.00
4858;BME280;58975;51.978;8.472;2023-02-10T20:41:01;102081.84;;;3.15;100.00
4858;BME280;58975;51.978;8.472;2023-02-10T20:46:04;102084.50;;;3.14;100.00
4858;BME280;58975;51.978;8.472;2023-02-10T20:51:04;102072.81;;;3.25;100.00
4858;BME280;58975;51.978;8.472;2023-02-10T20:56:01;102066.66;;;3.26;100.00
4858;BME280;58975;51.978;8.472;2023-02-10T21:00:59;102075.34;;;3.30;100.00
4858;BME280;58975;51.978;8.472;2023-02-10T21:06:16;102075.09;;;3.41;100.00
4858;BME280;58975;51.978;8.472;2023-02-10T21:11:14;102083.06;;;3.38;100.00
4858;BME280;58975;51.978;8.472;2023-02-10T21:16:13;102075.09;;;3.41;100.00
4858;BME280;58975;51.978;8.472;2023-02-10T21:21:11;102073.09;;;3.50;100.00
4858;BME280;58975;51.978;8.472;2023-02-10T21:26:07;102071.84;;;3.65;100.00
4858;BME280;58975;51.978;8.472;2023-02-10T21:31:12;102067.19;;;3.76;100.00
4858;BME280;58975;51.978;8.472;2023-02-10T21:36:22;102069.66;;;3.82;100.00
4858;BME280;58975;51.978;8.472;2023-02-10T21:41:19;102064.38;;;3.82;100.00
4858;BME280;58975;51.978;8.472;2023-02-10T21:46:37;102060.44;;;3.98;100.00
4858;BME280;58975;51.978;8.472;2023-02-10T21:51:34;102045.31;;;4.05;100.00
4858;BME280;58975;51.978;8.472;2023-02-10T21:56:30;102040.78;;;4.10;100.00
4858;BME280;58975;51.978;8.472;2023-02-10T22:01:28;102037.28;;;4.09;100.00
4858;BME280;58975;51.978;8.472;2023-02-10T22:06:25;102040.81;;;4.08;100.00
4858;BME280;58975;51.978;8.472;2023-02-10T22:11:22;102040.81;;;4.08;100.00
4858;BME280;58975;51.978;8.472;2023-02-10T22:16:18;102043.22;;;4.16;100.00
4858;BME280;58975;51.978;8.472;2023-02-10T22:21:18;102042.44;;;4.12;100.00
4858;BME280;58975;51.978;8.472;2023-02-10T22:26:17;102040.69;;;4.13;100.00
4858;BME280;58975;51.978;8.472;2023-02-10T22:31:16;102038.75;;;4.19;100.00
4858;BME280;58975;51.978;8.472;2023-02-10T22:36:13;102038.81;;;4.16;100.00
4858;BME280;58975;51.978;8.472;2023-02-10T22:41:12;102050.84;;;4.26;100.00
4858;BME280;58975;51.978;8.472;2023-02-10T22:46:11;102054.31;;;4.28;100.00
4858;BME280;58975;51.978;8.472;2023-02-10T22:51:14;102042.81;;;4.31;100.00
4858;BME280;58975;51.978;8.472;2023-02-10T22:56:13;102040.13;;;4.33;100.00
4858;BME280;58975;51.978;8.472;2023-02-10T23:01:10;102034.69;;;4.39;100.00
4858;BME280;58975;51.978;8.472;2023-02-10T23:06:07;102027.66;;;4.38;100.00
4858;BME280;58975;51.978;8.472;2023-02-10T23:11:04;102015.28;;;4.40;100.00
4858;BME280;58975;51.978;8.472;2023-02-10T23:16:01;102002.94;;;4.42;100.00
4858;BME280;58975;51.978;8.472;2023-02-10T23:20:57;102003.84;;;4.41;100.00
4858;BME280;58975;51.978;8.472;2023-02-10T23:25:53;101995.81;;;4.44;100.00
4858;BME280;58975;51.978;8.472;2023-02-10T23:30:50;101989.75;;;4.42;100.00
4858;BME280;58975;51.978;8.472;2023-02-10T23:35:49;101987.09;;;4.42;100.00
4858;BME280;58975;51.978;8.472;2023-02-10T23:40:47;101970.22;;;4.47;100.00
4858;BME280;58975;51.978;8.472;2023-02-10T23:45:43;101961.38;;;4.50;100.00
4858;BME280;58975;51.978;8.472;2023-02-10T23:50:40;101964.81;;;4.52;100.00
4858;BME280;58975;51.978;8.472;2023-02-10T23:55:39;101960.16;;;4.60;100.00
